Time;durP1;ratioP1;P1;durP2;ratioP2;P2;SDS_P1;SDS_P2;PMS_P1;PMS_P2;Temp;Humidity;BMP_temperature;BMP_pressure;BME280_temperature;BME280_humidity;BME280_pressure;Samples;Min_cycle;Max_cycle;Signal;HPM_P1;HPM_P2
2022/07/26 00:01:46;;;;;;;7.25;2.38;;;21.90;84.40;;;;;;5060455;28;20086;-63
2022/07/26 00:04:12;;;;;;;4.03;1.17;;;22.00;84.80;;;;;;5045013;28;20060;-63
2022/07/26 00:06:44;;;;;;;8.38;1.98;;;21.90;84.90;;;;;;5048690;28;20087;-63
2022/07/26 00:09:09;;;;;;;9.55;1.95;;;21.80;85.20;;;;;;5051459;28;20036;-63
2022/07/26 00:11:35;;;;;;;6.38;2.38;;;21.90;85.20;;;;;;5052101;28;20411;-63
2022/07/26 00:14:02;;;;;;;6.30;1.58;;;21.80;85.30;;;;;;5052319;28;20128;-63
2022/07/26 00:16:28;;;;;;;8.77;2.00;;;21.80;85.40;;;;;;5050205;28;20499;-63
2022/07/26 00:18:55;;;;;;;5.05;2.17;;;21.80;85.40;;;;;;5062029;28;20056;-63
2022/07/26 00:21:24;;;;;;;10.68;2.13;;;21.80;85.70;;;;;;5053248;28;20029;-63
2022/07/26 00:23:50;;;;;;;6.60;1.50;;;21.80;85.70;;;;;;5051394;28;20047;-63
2022/07/26 00:26:15;;;;;;;3.65;1.42;;;21.80;85.60;;;;;;5051364;28;20041;-63
2022/07/26 00:28:41;;;;;;;2.38;1.25;;;21.70;85.50;;;;;;5051165;28;20036;-63
2022/07/26 00:31:07;;;;;;;5.25;1.80;;;21.70;85.60;;;;;;5051358;28;20040;-63
2022/07/26 00:33:45;;;;;;;5.35;1.60;;;21.70;85.70;;;;;;5051780;28;20029;-63
2022/07/26 00:36:11;;;;;;;9.40;1.60;;;21.70;85.90;;;;;;5049978;28;20037;-63
2022/07/26 00:38:38;;;;;;;1.88;1.10;;;21.70;85.80;;;;;;5051310;28;20488;-62
2022/07/26 00:41:04;;;;;;;10.23;2.17;;;21.70;85.70;;;;;;5054453;28;20025;-63
2022/07/26 00:43:30;;;;;;;17.20;1.88;;;21.60;85.90;;;;;;5051138;28;20033;-63
2022/07/26 00:45:56;;;;;;;9.18;1.35;;;21.60;85.80;;;;;;5051751;28;20091;-63
2022/07/26 00:48:25;;;;;;;5.35;1.38;;;21.60;85.80;;;;;;5051360;28;20029;-63
2022/07/26 00:50:52;;;;;;;6.78;2.03;;;21.60;85.80;;;;;;5051095;28;20053;-63
2022/07/26 00:53:20;;;;;;;4.95;1.40;;;21.60;85.90;;;;;;5051176;28;20131;-63
2022/07/26 00:55:50;;;;;;;7.28;1.83;;;21.60;85.80;;;;;;5068433;28;20040;-63
2022/07/26 00:58:17;;;;;;;7.63;1.83;;;21.60;85.90;;;;;;5054368;28;20103;-63
2022/07/26 01:00:43;;;;;;;5.88;2.20;;;21.50;85.80;;;;;;5052165;28;20031;-63
2022/07/26 01:03:09;;;;;;;9.70;1.77;;;21.50;85.70;;;;;;5050502;28;20075;-63
2022/07/26 01:05:38;;;;;;;4.80;1.40;;;21.50;85.50;;;;;;5038120;28;20384;-63
2022/07/26 01:08:04;;;;;;;12.40;2.25;;;21.60;85.60;;;;;;5051244;28;20086;-63
2022/07/26 01:10:32;;;;;;;10.73;1.95;;;21.60;85.70;;;;;;5045580;28;20036;-63
2022/07/26 01:12:58;;;;;;;4.68;1.92;;;21.50;85.40;;;;;;5045138;28;20025;-63
2022/07/26 01:15:24;;;;;;;7.60;1.80;;;21.60;85.30;;;;;;5048205;28;20086;-63
2022/07/26 01:17:53;;;;;;;4.60;1.60;;;21.60;85.30;;;;;;5050473;28;20041;-63
2022/07/26 01:20:18;;;;;;;6.20;1.73;;;21.50;85.20;;;;;;5053156;28;20048;-62
2022/07/26 01:22:44;;;;;;;6.00;2.08;;;21.50;85.20;;;;;;5050872;28;20056;-63
2022/07/26 01:25:10;;;;;;;6.18;1.73;;;21.50;85.30;;;;;;5049972;28;20040;-63
2022/07/26 01:27:38;;;;;;;5.68;1.73;;;21.50;85.20;;;;;;5050430;28;20029;-62
2022/07/26 01:30:10;;;;;;;7.43;1.98;;;21.50;85.50;;;;;;5054738;28;20025;-63
2022/07/26 01:32:35;;;;;;;2.40;1.42;;;21.50;85.40;;;;;;5055815;28;20587;-63
2022/07/26 01:35:02;;;;;;;5.65;1.70;;;21.50;85.30;;;;;;5054690;28;20028;-63
2022/07/26 01:37:28;;;;;;;10.02;1.92;;;21.50;85.60;;;;;;5054312;28;20041;-63
2022/07/26 01:39:53;;;;;;;3.72;1.88;;;21.40;85.70;;;;;;5054819;28;20033;-63
2022/07/26 01:42:19;;;;;;;5.13;1.85;;;21.40;85.80;;;;;;5055823;28;20071;-63
2022/07/26 01:44:45;;;;;;;4.35;1.70;;;21.40;85.80;;;;;;5050372;28;20496;-63
2022/07/26 01:47:11;;;;;;;9.05;2.33;;;21.50;85.80;;;;;;5046044;28;20043;-63
2022/07/26 01:49:36;;;;;;;3.30;1.63;;;21.50;85.90;;;;;;5053894;28;20087;-63
2022/07/26 01:52:02;;;;;;;16.15;3.25;;;21.40;85.70;;;;;;5054502;28;20037;-63
2022/07/26 01:54:28;;;;;;;5.90;1.88;;;21.50;85.80;;;;;;5052971;28;20043;-63
2022/07/26 01:56:53;;;;;;;2.58;1.60;;;21.50;85.50;;;;;;5054615;28;20037;-63
2022/07/26 01:59:19;;;;;;;5.20;1.92;;;21.40;85.40;;;;;;5053619;28;20027;-63
2022/07/26 02:01:45;;;;;;;5.43;1.98;;;21.50;85.60;;;;;;5053149;28;20120;-63
2022/07/26 02:04:57;;;;;;;8.30;1.90;;;21.40;85.30;;;;;;5056049;28;20385;-63
2022/07/26 02:06:57;;;;;;;5.60;1.83;;;21.50;85.50;;;;;;5052512;28;20046;-63
2022/07/26 02:09:22;;;;;;;2.95;1.50;;;21.50;85.60;;;;;;5053408;28;20067;-63
2022/07/26 02:11:48;;;;;;;4.70;1.80;;;21.40;85.50;;;;;;5056365;28;20416;-63
2022/07/26 02:14:14;;;;;;;15.43;2.72;;;21.40;85.90;;;;;;5053619;28;20068;-63
2022/07/26 02:16:39;;;;;;;10.13;2.80;;;21.40;86.30;;;;;;5053192;28;20045;-63
2022/07/26 02:19:05;;;;;;;9.50;2.33;;;21.40;87.50;;;;;;5047735;28;20022;-63
2022/07/26 02:21:31;;;;;;;9.70;2.67;;;21.40;87.80;;;;;;5059974;28;20101;-63
2022/07/26 02:23:57;;;;;;;4.80;1.75;;;21.50;88.30;;;;;;5054311;28;20112;-63
2022/07/26 02:26:22;;;;;;;8.80;1.90;;;21.40;87.80;;;;;;5045333;28;20020;-63
2022/07/26 02:28:48;;;;;;;13.43;2.30;;;21.50;88.00;;;;;;5041888;28;20041;-62
2022/07/26 02:31:13;;;;;;;10.93;2.30;;;21.50;89.20;;;;;;5047635;28;20035;-62
2022/07/26 02:33:39;;;;;;;6.20;2.13;;;21.50;89.30;;;;;;5049252;28;20053;-62
2022/07/26 02:36:05;;;;;;;10.15;2.83;;;21.50;89.40;;;;;;5042964;28;20034;-62
2022/07/26 02:38:30;;;;;;;6.93;2.00;;;21.60;89.60;;;;;;5063754;28;20392;-62
2022/07/26 02:40:56;;;;;;;13.73;2.58;;;21.50;89.90;;;;;;5052151;28;20476;-62
2022/07/26 02:43:22;;;;;;;7.55;1.80;;;21.60;90.00;;;;;;5052912;28;20029;-62
2022/07/26 02:45:47;;;;;;;11.38;2.03;;;21.60;89.90;;;;;;5055199;28;20033;-62
2022/07/26 02:48:16;;;;;;;7.20;1.83;;;21.60;90.00;;;;;;5052675;28;20127;-62
2022/07/26 02:50:41;;;;;;;5.30;1.90;;;21.50;89.40;;;;;;5052320;28;20052;-62
2022/07/26 02:53:10;;;;;;;11.48;2.65;;;21.50;89.20;;;;;;5052418;28;20049;-62
2022/07/26 02:55:35;;;;;;;11.20;2.13;;;21.50;88.40;;;;;;5052734;28;20039;-62
2022/07/26 02:58:01;;;;;;;8.88;1.40;;;21.50;88.40;;;;;;5051820;28;20117;-62
2022/07/26 03:00:27;;;;;;;6.95;1.25;;;21.50;88.00;;;;;;5052168;28;20024;-62
2022/07/26 03:02:53;;;;;;;14.00;2.13;;;21.50;87.90;;;;;;5043879;28;20033;-62
2022/07/26 03:05:19;;;;;;;7.95;1.55;;;21.50;87.70;;;;;;5051772;28;20052;-62
2022/07/26 03:07:45;;;;;;;8.20;1.48;;;21.50;87.30;;;;;;5052755;28;20021;-62
2022/07/26 03:10:11;;;;;;;6.60;1.15;;;21.50;86.70;;;;;;5052486;28;20037;-62
2022/07/26 03:12:37;;;;;;;4.13;1.30;;;21.50;86.50;;;;;;5049211;28;20032;-62
2022/07/26 03:15:03;;;;;;;6.97;1.15;;;21.40;86.20;;;;;;5052408;28;20029;-62
2022/07/26 03:17:29;;;;;;;3.58;1.08;;;21.40;86.20;;;;;;5051948;28;20084;-62
2022/07/26 03:19:54;;;;;;;5.05;1.30;;;21.40;85.80;;;;;;5051487;28;20056;-62
2022/07/26 03:22:20;;;;;;;6.10;1.27;;;21.40;85.80;;;;;;5053040;28;20507;-62
2022/07/26 03:24:49;;;;;;;5.55;1.30;;;21.40;85.70;;;;;;5051403;28;20036;-62
2022/07/26 03:27:14;;;;;;;5.05;1.00;;;21.40;86.00;;;;;;5058343;28;20028;-62
2022/07/26 03:29:40;;;;;;;8.95;1.15;;;21.40;86.00;;;;;;5055018;28;20032;-62
2022/07/26 03:32:06;;;;;;;4.57;1.60;;;21.40;86.00;;;;;;5051764;28;20433;-62
2022/07/26 03:34:32;;;;;;;5.05;0.95;;;21.30;86.20;;;;;;5054370;28;20033;-62
2022/07/26 03:36:57;;;;;;;4.85;1.90;;;21.30;86.70;;;;;;5053949;28;20040;-62
2022/07/26 03:39:24;;;;;;;6.63;1.10;;;21.30;86.80;;;;;;5052107;28;20143;-62
2022/07/26 03:41:49;;;;;;;8.10;1.23;;;21.30;86.60;;;;;;5052379;28;20039;-62
2022/07/26 03:44:15;;;;;;;5.82;1.42;;;21.30;86.80;;;;;;5051816;28;20025;-62
2022/07/26 03:46:41;;;;;;;3.40;0.93;;;21.20;87.50;;;;;;5051190;28;20522;-62
2022/07/26 03:49:07;;;;;;;4.35;0.93;;;21.20;86.80;;;;;;5052444;28;20037;-62
2022/07/26 03:51:35;;;;;;;3.47;0.80;;;21.20;87.00;;;;;;5051683;28;20063;-62
2022/07/26 03:54:01;;;;;;;4.55;0.80;;;21.20;86.80;;;;;;5051411;28;20494;-62
2022/07/26 03:56:32;;;;;;;1.25;0.70;;;21.20;86.90;;;;;;5051653;28;20048;-62
2022/07/26 03:59:07;;;;;;;4.45;1.25;;;21.20;86.90;;;;;;5060941;28;20031;-62
2022/07/26 04:01:40;;;;;;;3.45;0.75;;;21.10;87.50;;;;;;5051034;28;20454;-62
2022/07/26 04:04:09;;;;;;;;;;;21.10;86.80;;;;;;5061033;28;20098;-62
2022/07/26 04:06:35;;;;;;;10.38;1.02;;;21.10;86.80;;;;;;5051976;28;19912;-62
2022/07/26 04:09:02;;;;;;;3.53;0.90;;;21.20;86.20;;;;;;5051185;28;20495;-62
2022/07/26 04:11:28;;;;;;;4.47;0.93;;;21.10;86.30;;;;;;5051769;28;20037;-62
2022/07/26 04:13:54;;;;;;;4.78;1.30;;;21.10;86.60;;;;;;5057758;28;20089;-63
2022/07/26 04:16:19;;;;;;;4.97;1.00;;;21.10;86.50;;;;;;5052590;28;20037;-62
2022/07/26 04:18:45;;;;;;;5.82;0.88;;;21.10;86.60;;;;;;5058227;28;20036;-62
2022/07/26 04:21:11;;;;;;;8.15;1.05;;;21.10;86.30;;;;;;5052294;28;20135;-62
2022/07/26 04:23:36;;;;;;;5.07;1.00;;;21.10;86.20;;;;;;5063406;28;20028;-62
2022/07/26 04:26:02;;;;;;;3.95;0.90;;;21.10;86.70;;;;;;5052749;28;20031;-62
2022/07/26 04:28:28;;;;;;;5.18;1.00;;;21.00;86.10;;;;;;5050858;28;20044;-62
2022/07/26 04:30:55;;;;;;;4.35;0.95;;;21.10;86.10;;;;;;5051549;28;20052;-62
2022/07/26 04:33:20;;;;;;;3.92;1.05;;;21.10;86.00;;;;;;5058110;28;20038;-62
2022/07/26 04:35:46;;;;;;;11.00;2.20;;;21.10;86.00;;;;;;5042794;28;20119;-63
2022/07/26 04:38:12;;;;;;;7.55;1.38;;;21.10;86.30;;;;;;5064885;28;20036;-62
2022/07/26 04:40:38;;;;;;;8.98;1.08;;;21.10;86.20;;;;;;5051750;28;20104;-62
2022/07/26 04:43:03;;;;;;;6.70;1.23;;;21.00;86.40;;;;;;5039707;28;20032;-62
2022/07/26 04:45:30;;;;;;;6.82;1.30;;;21.00;86.40;;;;;;5051478;28;20037;-62
2022/07/26 04:47:56;;;;;;;8.80;1.10;;;21.00;86.40;;;;;;5057326;28;20021;-62
2022/07/26 04:50:22;;;;;;;5.40;1.25;;;21.00;86.20;;;;;;5057423;28;20504;-62
2022/07/26 04:52:49;;;;;;;5.50;1.17;;;21.00;86.30;;;;;;5050725;28;20116;-62
2022/07/26 04:55:15;;;;;;;3.83;0.88;;;21.00;86.20;;;;;;5051848;28;20037;-62
2022/07/26 04:57:42;;;;;;;4.07;0.80;;;21.00;86.00;;;;;;5050506;28;20534;-62
2022/07/26 05:00:10;;;;;;;4.20;0.75;;;21.00;85.60;;;;;;5064361;28;20365;-62
2022/07/26 05:02:36;;;;;;;2.55;0.95;;;21.00;85.30;;;;;;5039994;28;20481;-62
2022/07/26 05:05:06;;;;;;;4.05;0.68;;;21.00;84.80;;;;;;5054653;28;20055;-62
2022/07/26 05:07:50;;;;;;;2.22;0.90;;;21.00;84.30;;;;;;5055778;28;20037;-62
2022/07/26 05:10:17;;;;;;;2.83;0.77;;;21.00;84.40;;;;;;5054162;28;20532;-63
2022/07/26 05:12:45;;;;;;;9.07;1.35;;;21.10;84.40;;;;;;5055857;28;20075;-62
2022/07/26 05:15:10;;;;;;;7.65;1.63;;;21.00;84.60;;;;;;5058618;28;20024;-63
2022/07/26 05:17:43;;;;;;;9.13;0.98;;;21.00;84.60;;;;;;5062519;28;20037;-62
2022/07/26 05:20:11;;;;;;;2.25;0.90;;;21.00;84.80;;;;;;5054845;28;20028;-63
2022/07/26 05:22:37;;;;;;;5.70;0.80;;;21.10;84.90;;;;;;5055202;28;20095;-62
2022/07/26 05:25:04;;;;;;;3.20;0.90;;;21.10;84.80;;;;;;5054335;28;20025;-62
2022/07/26 05:27:29;;;;;;;5.68;0.90;;;21.10;85.20;;;;;;5054981;28;20036;-62
2022/07/26 05:29:55;;;;;;;8.00;1.35;;;21.10;84.80;;;;;;5054574;28;20036;-62
2022/07/26 05:32:22;;;;;;;6.07;1.00;;;21.10;84.80;;;;;;5054220;28;20041;-62
2022/07/26 05:34:48;;;;;;;9.73;1.17;;;21.10;85.10;;;;;;5051394;28;20025;-63
2022/07/26 05:37:13;;;;;;;3.17;1.02;;;21.10;84.90;;;;;;5058013;28;20404;-62
2022/07/26 05:39:39;;;;;;;5.80;1.20;;;21.10;85.70;;;;;;5054803;28;20058;-62
2022/07/26 05:42:05;;;;;;;4.38;1.10;;;21.10;85.00;;;;;;5055324;28;20392;-62
2022/07/26 05:44:31;;;;;;;3.78;0.90;;;21.00;85.10;;;;;;5054176;28;20040;-62
2022/07/26 05:46:56;;;;;;;8.10;1.00;;;21.00;85.80;;;;;;5054496;28;20082;-62
2022/07/26 05:49:22;;;;;;;4.30;1.08;;;21.00;85.00;;;;;;5054121;28;20108;-62
2022/07/26 05:51:48;;;;;;;6.28;1.08;;;21.00;84.60;;;;;;5055316;28;20037;-62
2022/07/26 05:54:13;;;;;;;3.72;1.10;;;20.90;84.30;;;;;;5062145;28;20041;-62
2022/07/26 05:56:39;;;;;;;12.82;0.88;;;21.00;84.00;;;;;;5054449;28;20051;-62
2022/07/26 05:59:05;;;;;;;10.32;0.90;;;20.90;83.70;;;;;;5057839;28;20024;-62
2022/07/26 06:01:31;;;;;;;3.75;1.08;;;20.90;83.60;;;;;;5055216;28;20369;-62
2022/07/26 06:04:00;;;;;;;7.70;1.27;;;20.90;83.50;;;;;;5054376;28;20115;-62
2022/07/26 06:06:25;;;;;;;5.95;1.23;;;20.90;83.70;;;;;;5053191;28;20079;-64
2022/07/26 06:08:51;;;;;;;5.45;0.95;;;20.80;83.80;;;;;;5058543;28;20029;-63
2022/07/26 06:11:17;;;;;;;9.43;1.40;;;20.90;83.90;;;;;;5054176;28;20033;-63
2022/07/26 06:13:42;;;;;;;3.63;0.82;;;20.90;84.10;;;;;;5052804;28;20112;-63
2022/07/26 06:16:08;;;;;;;5.28;1.23;;;20.90;84.00;;;;;;5052306;28;20063;-63
2022/07/26 06:18:34;;;;;;;7.95;1.15;;;20.90;84.20;;;;;;5052616;28;20040;-63
2022/07/26 06:21:00;;;;;;;10.25;1.38;;;20.90;84.30;;;;;;5052304;28;20025;-63
2022/07/26 06:23:25;;;;;;;9.68;1.23;;;20.90;84.50;;;;;;5052436;28;20040;-63
2022/07/26 06:25:51;;;;;;;6.05;1.00;;;20.90;84.80;;;;;;5052714;28;20389;-63
2022/07/26 06:28:17;;;;;;;7.22;1.20;;;20.90;85.00;;;;;;5053138;28;20693;-63
2022/07/26 06:30:46;;;;;;;7.93;1.00;;;20.90;84.80;;;;;;5053065;28;20031;-63
2022/07/26 06:33:11;;;;;;;7.88;1.30;;;20.80;85.10;;;;;;5050532;28;20032;-63
2022/07/26 06:35:38;;;;;;;10.25;1.48;;;20.80;85.10;;;;;;5053109;28;20037;-63
2022/07/26 06:38:07;;;;;;;4.50;0.95;;;20.90;85.00;;;;;;5052400;28;20032;-63
2022/07/26 06:40:34;;;;;;;5.80;1.10;;;20.90;85.30;;;;;;5052398;28;20040;-62
2022/07/26 06:43:00;;;;;;;4.15;1.08;;;20.90;84.70;;;;;;5052142;28;20052;-66
2022/07/26 06:45:27;;;;;;;5.63;1.15;;;20.90;84.50;;;;;;5051531;28;20087;-62
2022/07/26 06:47:53;;;;;;;4.85;1.23;;;20.90;84.30;;;;;;5052212;28;20025;-62
2022/07/26 06:50:19;;;;;;;9.13;1.63;;;20.90;84.10;;;;;;5050371;28;20036;-62
2022/07/26 06:52:45;;;;;;;5.13;1.00;;;20.90;83.80;;;;;;5051521;28;20063;-62
2022/07/26 06:55:11;;;;;;;3.42;0.80;;;21.00;83.50;;;;;;5051455;28;20119;-62
2022/07/26 06:57:37;;;;;;;8.07;1.17;;;20.90;82.90;;;;;;5050620;28;20075;-62
2022/07/26 07:00:06;;;;;;;4.43;1.00;;;20.90;82.70;;;;;;5050964;28;20029;-62
2022/07/26 07:02:32;;;;;;;5.28;1.00;;;20.90;82.60;;;;;;5051434;28;20044;-62
2022/07/26 07:04:58;;;;;;;2.38;0.80;;;20.90;82.30;;;;;;5051022;28;20021;-66
2022/07/26 07:07:23;;;;;;;3.28;0.93;;;21.00;81.90;;;;;;5052875;28;20037;-63
2022/07/26 07:09:49;;;;;;;4.43;1.00;;;21.00;81.90;;;;;;5050034;28;20029;-62
2022/07/26 07:12:15;;;;;;;5.43;0.90;;;21.00;81.70;;;;;;5050837;28;20112;-62
2022/07/26 07:14:41;;;;;;;6.95;1.30;;;20.90;81.50;;;;;;5049210;28;20366;-62
2022/07/26 07:17:07;;;;;;;3.28;1.00;;;20.90;81.60;;;;;;5051308;28;20106;-62
2022/07/26 07:19:37;;;;;;;4.78;1.42;;;21.00;81.60;;;;;;5053436;28;20415;-62
2022/07/26 07:22:03;;;;;;;5.80;1.20;;;21.00;81.60;;;;;;5050636;28;20053;-62
2022/07/26 07:24:29;;;;;;;3.85;1.00;;;21.00;81.90;;;;;;5049397;28;20110;-62
2022/07/26 07:26:55;;;;;;;8.07;1.33;;;21.00;81.80;;;;;;5051830;28;20029;-62
2022/07/26 07:29:21;;;;;;;8.13;1.13;;;21.00;82.00;;;;;;5049004;28;20421;-62
2022/07/26 07:31:47;;;;;;;7.43;1.45;;;21.10;82.20;;;;;;5049093;28;20035;-62
2022/07/26 07:34:14;;;;;;;10.18;1.90;;;21.10;82.40;;;;;;5051504;28;20108;-62
2022/07/26 07:36:40;;;;;;;7.35;1.48;;;21.10;82.20;;;;;;5048679;28;20460;-62
2022/07/26 07:39:06;;;;;;;4.38;1.58;;;21.10;82.20;;;;;;5048762;28;20112;-62
2022/07/26 07:41:33;;;;;;;3.95;1.40;;;21.10;81.70;;;;;;5051876;28;20105;-63
2022/07/26 07:43:59;;;;;;;3.38;1.00;;;21.10;81.30;;;;;;5049263;28;20683;-62
2022/07/26 07:46:26;;;;;;;5.85;1.20;;;21.10;81.20;;;;;;5049881;28;20438;-62
2022/07/26 07:48:54;;;;;;;5.18;1.02;;;21.10;81.10;;;;;;5049870;28;20543;-62
2022/07/26 07:51:20;;;;;;;2.67;0.63;;;21.10;80.30;;;;;;5049229;28;20112;-62
2022/07/26 07:53:46;;;;;;;8.63;1.02;;;21.10;79.90;;;;;;5047628;28;20061;-62
2022/07/26 07:56:12;;;;;;;3.60;1.17;;;21.10;80.10;;;;;;5049535;28;20063;-63
2022/07/26 07:58:38;;;;;;;4.25;1.10;;;21.10;80.20;;;;;;5049466;28;20381;-63
2022/07/26 08:01:03;;;;;;;3.95;0.98;;;21.10;80.30;;;;;;5049819;28;20048;-63
2022/07/26 08:03:29;;;;;;;4.93;1.20;;;21.10;80.70;;;;;;5050019;28;20067;-62
2022/07/26 08:05:54;;;;;;;6.28;1.10;;;21.10;80.30;;;;;;5052291;28;20029;-62
2022/07/26 08:08:20;;;;;;;6.57;1.38;;;21.20;80.00;;;;;;5049815;28;20032;-63
2022/07/26 08:10:46;;;;;;;5.15;0.90;;;21.20;80.00;;;;;;5050501;28;20052;-63
2022/07/26 08:13:12;;;;;;;6.68;1.20;;;21.20;80.40;;;;;;5049355;28;20036;-62
2022/07/26 08:15:37;;;;;;;5.38;0.82;;;21.20;80.70;;;;;;5052609;28;20029;-63
2022/07/26 08:18:03;;;;;;;5.60;1.08;;;21.20;81.00;;;;;;5050958;28;20032;-62
2022/07/26 08:20:29;;;;;;;6.57;1.27;;;21.30;80.80;;;;;;5051359;28;20052;-63
2022/07/26 08:22:54;;;;;;;5.32;1.00;;;21.30;80.50;;;;;;5049966;28;20426;-63
2022/07/26 08:25:20;;;;;;;5.80;1.45;;;21.30;80.40;;;;;;5054658;28;20107;-63
2022/07/26 08:27:46;;;;;;;5.95;1.15;;;21.40;80.70;;;;;;5050665;28;20036;-63
2022/07/26 08:30:12;;;;;;;7.53;1.55;;;21.40;80.60;;;;;;5054056;28;20037;-63
2022/07/26 08:32:38;;;;;;;7.05;0.90;;;21.40;81.00;;;;;;5050118;28;20057;-63
2022/07/26 08:35:07;;;;;;;10.77;1.58;;;21.40;81.20;;;;;;5051485;28;20028;-63
2022/07/26 08:37:33;;;;;;;6.38;1.48;;;21.50;82.20;;;;;;5052181;28;20137;-63
2022/07/26 08:39:58;;;;;;;7.85;1.70;;;21.50;82.30;;;;;;5055707;28;20110;-63
2022/07/26 08:42:24;;;;;;;7.13;1.50;;;21.50;82.20;;;;;;5055092;28;20033;-63
2022/07/26 08:44:50;;;;;;;6.10;1.50;;;21.50;82.10;;;;;;5054376;28;20029;-64
2022/07/26 08:47:21;;;;;;;9.68;1.80;;;21.50;81.80;;;;;;5059042;28;20078;-63
2022/07/26 08:49:47;;;;;;;6.95;1.25;;;21.50;81.70;;;;;;5055865;28;20028;-63
2022/07/26 08:52:14;;;;;;;7.78;1.27;;;21.50;81.70;;;;;;5053949;28;20051;-64
2022/07/26 08:54:45;;;;;;;12.18;1.60;;;21.60;81.60;;;;;;5057202;28;20083;-63
2022/07/26 08:57:11;;;;;;;11.13;1.38;;;21.60;81.30;;;;;;5058264;28;20071;-63
2022/07/26 08:59:37;;;;;;;11.27;1.40;;;21.60;81.10;;;;;;5053845;28;20055;-63
2022/07/26 09:02:08;;;;;;;5.78;1.13;;;21.60;80.60;;;;;;5053540;28;20037;-64
2022/07/26 09:04:39;;;;;;;5.40;1.33;;;21.60;80.20;;;;;;5057102;28;20377;-62
2022/07/26 09:07:17;;;;;;;5.03;1.30;;;21.60;80.30;;;;;;5056563;28;20029;-62
2022/07/26 09:10:09;;;;;;;13.93;1.58;;;21.70;80.60;;;;;;5054126;28;20029;-62
2022/07/26 09:12:35;;;;;;;7.00;1.80;;;21.70;80.60;;;;;;5051671;28;20512;-62
2022/07/26 09:15:02;;;;;;;7.88;1.52;;;21.70;80.10;;;;;;5054373;28;20021;-62
2022/07/26 09:17:42;;;;;;;7.35;1.60;;;21.70;79.90;;;;;;5055731;28;20399;-62
2022/07/26 09:20:17;;;;;;;8.95;2.15;;;21.80;79.70;;;;;;5053942;28;20480;-62
2022/07/26 09:23:03;;;;;;;7.88;1.30;;;21.80;78.90;;;;;;5055091;28;20060;-63
2022/07/26 09:25:38;;;;;;;11.98;2.05;;;21.80;78.80;;;;;;5052204;28;20032;-62
2022/07/26 09:28:23;;;;;;;17.23;1.92;;;21.80;79.40;;;;;;5053480;28;20100;-62
2022/07/26 09:31:07;;;;;;;13.55;1.98;;;21.80;79.20;;;;;;5052270;28;20031;-62
2022/07/26 09:33:44;;;;;;;8.82;1.90;;;21.80;79.70;;;;;;5050381;28;20033;-62
2022/07/26 09:36:10;;;;;;;7.15;1.65;;;21.90;79.00;;;;;;5054332;28;20127;-62
2022/07/26 09:38:40;;;;;;;6.03;1.77;;;21.90;78.90;;;;;;5052461;28;20159;-62
2022/07/26 09:41:27;;;;;;;14.07;2.53;;;21.90;77.90;;;;;;5052528;28;20025;-63
2022/07/26 09:43:59;;;;;;;13.25;2.25;;;21.90;78.10;;;;;;5052145;28;20029;-62
2022/07/26 09:46:26;;;;;;;15.18;2.42;;;21.90;77.80;;;;;;5053005;28;20029;-62
2022/07/26 09:48:54;;;;;;;12.15;2.15;;;21.90;77.50;;;;;;5053708;28;20040;-63
2022/07/26 09:51:40;;;;;;;14.90;2.53;;;21.90;77.70;;;;;;5055594;28;20032;-62
2022/07/26 09:54:09;;;;;;;8.45;1.60;;;21.90;77.70;;;;;;5052585;28;20137;-63
2022/07/26 09:56:46;;;;;;;9.32;2.10;;;21.90;77.10;;;;;;5052266;28;20037;-64
2022/07/26 09:59:20;;;;;;;12.02;2.00;;;21.90;78.50;;;;;;5052592;28;20032;-63
2022/07/26 10:01:46;;;;;;;9.15;1.70;;;21.90;78.60;;;;;;5052284;28;20044;-63
2022/07/26 10:04:13;;;;;;;9.55;1.73;;;21.90;78.60;;;;;;5052410;28;20037;-63
2022/07/26 10:06:40;;;;;;;10.10;2.00;;;22.00;78.10;;;;;;5049643;28;20029;-63
2022/07/26 10:09:06;;;;;;;10.70;1.67;;;21.90;78.20;;;;;;5050648;28;20025;-63
2022/07/26 10:11:42;;;;;;;8.05;2.00;;;22.00;78.30;;;;;;5048687;28;20384;-63
2022/07/26 10:14:32;;;;;;;8.90;2.30;;;21.90;77.40;;;;;;5049970;28;20040;-63
2022/07/26 10:16:59;;;;;;;9.68;1.85;;;22.00;77.70;;;;;;5051573;28;20037;-63
2022/07/26 10:19:41;;;;;;;14.95;2.40;;;22.00;78.30;;;;;;5055535;28;20503;-62
2022/07/26 10:22:21;;;;;;;5.40;1.40;;;22.10;78.20;;;;;;5052100;28;20028;-62
2022/07/26 10:24:47;;;;;;;5.65;1.35;;;22.00;77.70;;;;;;5049766;28;20503;-62
2022/07/26 10:27:35;;;;;;;12.52;2.30;;;22.00;76.30;;;;;;5048872;28;20049;-63
2022/07/26 10:30:19;;;;;;;4.00;1.02;;;22.10;76.10;;;;;;5052011;28;20033;-65
2022/07/26 10:32:58;;;;;;;6.70;1.50;;;22.10;77.00;;;;;;5057709;28;20028;-63
2022/07/26 10:35:35;;;;;;;9.40;1.40;;;22.10;76.30;;;;;;5051766;28;20041;-62
2022/07/26 10:38:02;;;;;;;7.05;1.55;;;22.20;75.00;;;;;;5057353;28;20045;-62
2022/07/26 10:40:29;;;;;;;8.27;1.50;;;22.20;75.60;;;;;;5058062;28;20033;-62
2022/07/26 10:43:15;;;;;;;13.45;1.65;;;22.20;75.80;;;;;;5052753;28;20058;-63
2022/07/26 10:45:41;;;;;;;8.13;1.58;;;22.20;75.90;;;;;;5052738;28;20029;-63
2022/07/26 10:48:23;;;;;;;7.03;1.60;;;22.20;74.40;;;;;;5052356;28;20041;-62
2022/07/26 10:50:52;;;;;;;9.80;1.67;;;22.20;74.20;;;;;;5051099;28;20025;-62
2022/07/26 10:53:24;;;;;;;8.15;1.25;;;22.20;73.60;;;;;;5051322;28;20118;-62
2022/07/26 10:55:52;;;;;;;6.30;1.10;;;22.20;74.00;;;;;;5052621;28;20029;-62
2022/07/26 10:58:19;;;;;;;6.47;1.33;;;22.30;75.30;;;;;;5045474;28;20715;-63
2022/07/26 11:00:55;;;;;;;16.10;1.90;;;22.30;72.20;;;;;;5051878;28;20136;-63
2022/07/26 11:03:21;;;;;;;8.80;1.63;;;22.30;73.00;;;;;;5050571;28;20100;-63
2022/07/26 11:05:48;;;;;;;12.73;1.88;;;22.30;73.00;;;;;;5054697;28;20075;-62
2022/07/26 11:08:14;;;;;;;10.48;2.10;;;22.30;72.30;;;;;;5051431;28;20029;-63
2022/07/26 11:10:45;;;;;;;5.47;1.40;;;22.40;72.50;;;;;;5050387;28;20031;-62
2022/07/26 11:13:16;;;;;;;7.55;1.40;;;22.40;72.00;;;;;;5053009;28;20025;-62
2022/07/26 11:15:59;;;;;;;6.50;1.33;;;22.50;72.30;;;;;;5051738;28;20032;-62
2022/07/26 11:18:29;;;;;;;3.17;1.00;;;22.60;73.70;;;;;;5050805;28;20492;-62
2022/07/26 11:20:56;;;;;;;6.80;1.70;;;22.60;73.70;;;;;;5051178;28;20079;-63
2022/07/26 11:23:34;;;;;;;10.98;1.50;;;22.70;72.80;;;;;;5050347;28;20112;-63
2022/07/26 11:26:04;;;;;;;4.82;1.25;;;22.70;70.20;;;;;;5051321;28;20029;-63
2022/07/26 11:28:42;;;;;;;4.78;1.20;;;22.70;71.80;;;;;;5053804;28;20451;-62
2022/07/26 11:31:08;;;;;;;4.55;1.30;;;22.70;72.20;;;;;;5051384;28;20060;-62
2022/07/26 11:33:38;;;;;;;8.98;1.55;;;22.80;71.90;;;;;;5052160;28;20061;-62
2022/07/26 11:36:04;;;;;;;5.68;1.77;;;22.80;71.30;;;;;;5052692;28;20104;-62
2022/07/26 11:39:04;;;;;;;6.78;1.20;;;22.80;71.40;;;;;;5048915;28;20048;-62
2022/07/26 11:41:30;;;;;;;3.55;0.90;;;22.90;72.80;;;;;;5010901;28;20045;-62
2022/07/26 11:43:57;;;;;;;5.25;1.13;;;22.90;73.10;;;;;;5052367;28;20040;-62
2022/07/26 11:46:32;;;;;;;4.15;0.90;;;22.90;72.00;;;;;;5052430;28;20083;-62
2022/07/26 11:48:58;;;;;;;1.90;0.35;;;23.00;73.00;;;;;;5052371;28;20508;-62
2022/07/26 11:51:24;;;;;;;10.38;1.00;;;23.00;74.10;;;;;;5053816;28;20068;-63
2022/07/26 11:53:58;;;;;;;3.47;0.63;;;23.00;71.40;;;;;;5050064;28;20049;-63
2022/07/26 11:56:25;;;;;;;5.75;1.10;;;23.00;72.00;;;;;;5050051;28;20041;-63
2022/07/26 11:58:54;;;;;;;4.05;1.10;;;23.00;71.40;;;;;;5050213;28;20135;-62
2022/07/26 12:01:21;;;;;;;6.13;1.10;;;23.00;71.30;;;;;;5051147;28;20112;-62
2022/07/26 12:03:53;;;;;;;7.70;1.40;;;23.00;72.00;;;;;;5049589;28;20029;-62
2022/07/26 12:06:25;;;;;;;2.67;0.70;;;23.00;72.10;;;;;;5048049;28;20108;-62
2022/07/26 12:08:56;;;;;;;5.78;1.08;;;23.10;73.10;;;;;;5048799;28;20036;-62
2022/07/26 12:11:35;;;;;;;10.57;1.08;;;23.10;73.70;;;;;;5046202;28;20399;-62
2022/07/26 12:14:02;;;;;;;9.90;1.10;;;23.10;74.20;;;;;;5047222;28;20036;-63
2022/07/26 12:16:33;;;;;;;9.90;1.45;;;23.20;74.50;;;;;;5048174;28;20120;-62
2022/07/26 12:19:03;;;;;;;12.18;1.95;;;23.20;74.30;;;;;;5046818;28;20036;-63
2022/07/26 12:21:39;;;;;;;7.40;1.60;;;23.20;72.90;;;;;;5046266;28;20032;-63
2022/07/26 12:24:05;;;;;;;4.35;0.90;;;23.20;72.60;;;;;;5048545;28;20507;-63
2022/07/26 12:26:31;;;;;;;4.93;1.02;;;23.20;73.20;;;;;;5051331;28;20354;-62
2022/07/26 12:29:22;;;;;;;3.22;1.10;;;23.20;73.20;;;;;;5054112;28;20095;-63
2022/07/26 12:31:43;;;;;;;7.45;1.48;;;23.20;73.90;;;;;;5044449;28;20037;-63
2022/07/26 12:34:09;;;;;;;2.47;1.08;;;23.30;74.10;;;;;;5051621;28;20028;-63
2022/07/26 12:36:34;;;;;;;6.78;1.50;;;23.30;73.40;;;;;;5056317;28;20041;-64
2022/07/26 12:39:00;;;;;;;5.10;1.23;;;23.30;73.00;;;;;;5052709;28;20025;-63
2022/07/26 12:41:37;;;;;;;8.57;1.60;;;23.30;73.00;;;;;;5050625;28;20035;-63
2022/07/26 12:44:05;;;;;;;5.53;1.15;;;23.40;73.10;;;;;;5046521;28;20082;-63
2022/07/26 12:46:32;;;;;;;3.10;1.13;;;23.40;71.90;;;;;;5051438;28;20125;-63
2022/07/26 12:48:58;;;;;;;7.68;1.80;;;23.40;71.30;;;;;;5055579;28;20029;-63
2022/07/26 12:51:23;;;;;;;3.22;1.08;;;23.40;70.10;;;;;;5048558;28;20053;-63